Time;durP1;ratioP1;P1;durP2;ratioP2;P2;SDS_P1;SDS_P2;PMS_P1;PMS_P2;Temp;Humidity;BMP_temperature;BMP_pressure;BME280_temperature;BME280_humidity;BME280_pressure;Samples;Min_cycle;Max_cycle;Signal;HPM_P1;HPM_P2
2022/04/10 00:02:15;;;;;;;7.95;5.90;;;;;;;4.60;79.59;93675.44;1734162;82;20964;-52
2022/04/10 00:04:43;;;;;;;8.35;6.58;;;;;;;4.64;79.65;93672.75;1734699;82;21458;-51
2022/04/10 00:07:11;;;;;;;5.90;5.40;;;;;;;4.66;79.54;93677.19;1734501;82;21653;-51
2022/04/10 00:09:38;;;;;;;5.58;5.15;;;;;;;4.65;79.41;93673.52;1734430;82;21039;-51
2022/04/10 00:12:08;;;;;;;5.45;4.92;;;;;;;4.60;79.65;93675.44;1741860;81;20982;-51
2022/04/10 00:14:35;;;;;;;9.50;6.22;;;;;;;4.58;79.63;93681.30;1763336;81;20993;-50
2022/04/10 00:17:04;;;;;;;10.20;7.10;;;;;;;4.54;79.58;93686.09;1764651;81;21573;-51
2022/04/10 00:19:32;;;;;;;8.40;7.05;;;;;;;4.54;79.61;93696.99;1771028;81;20979;-51
2022/04/10 00:22:00;;;;;;;10.50;7.30;;;;;;;4.53;79.72;93700.14;1771324;81;21019;-50
2022/04/10 00:24:28;;;;;;;8.03;5.65;;;;;;;4.52;80.03;93698.03;1771273;81;21109;-50
2022/04/10 00:26:54;;;;;;;5.42;4.92;;;;;;;4.55;80.02;93696.38;1770767;81;20952;-50
2022/04/10 00:29:23;;;;;;;5.37;4.97;;;;;;;4.56;80.06;93701.98;1771050;81;20951;-50
2022/04/10 00:31:51;;;;;;;4.83;4.42;;;;;;;4.56;79.81;93701.41;1771064;81;21514;-51
2022/04/10 00:34:18;;;;;;;5.30;4.90;;;;;;;4.51;79.84;93701.95;1770996;81;21078;-51
2022/04/10 00:36:45;;;;;;;4.97;4.60;;;;;;;4.55;80.23;93694.44;1770685;80;21150;-51
2022/04/10 00:39:11;;;;;;;5.35;4.90;;;;;;;4.57;79.95;93691.29;1770475;81;21034;-51
2022/04/10 00:41:39;;;;;;;5.78;5.28;;;;;;;4.54;79.80;93692.91;1771782;80;21062;-51
2022/04/10 00:44:10;;;;;;;5.70;5.20;;;;;;;4.50;80.01;93696.34;1774287;81;21007;-50
2022/04/10 00:46:38;;;;;;;5.62;5.22;;;;;;;4.53;80.16;93702.86;1774133;81;21518;-51
2022/04/10 00:49:07;;;;;;;5.97;5.28;;;;;;;4.53;79.83;93696.83;1774275;80;21312;-51
2022/04/10 00:51:41;;;;;;;5.60;5.08;;;;;;;4.51;79.63;93704.67;1773906;80;21045;-49
2022/04/10 00:54:14;;;;;;;6.00;5.40;;;;;;;4.48;79.35;93698.73;1747637;80;21106;-50
2022/04/10 00:56:42;;;;;;;6.60;6.00;;;;;;;4.48;79.35;93698.73;1773953;80;21529;-52
2022/04/10 00:59:13;;;;;;;6.50;5.90;;;;;;;4.44;79.81;93699.42;1774232;80;21073;-50
2022/04/10 01:01:44;;;;;;;7.62;6.70;;;;;;;4.41;79.89;93707.70;1774515;80;21915;-51
2022/04/10 01:04:09;;;;;;;6.95;5.92;;;;;;;4.35;79.86;93699.89;1774457;80;21517;-51
2022/04/10 01:06:37;;;;;;;6.28;5.72;;;;;;;4.28;79.99;93704.93;1774686;80;21070;-50
2022/04/10 01:09:05;;;;;;;5.95;5.37;;;;;;;4.28;80.09;93696.77;1774314;80;20962;-51
2022/04/10 01:11:35;;;;;;;5.85;5.35;;;;;;;4.35;80.18;93696.58;1774307;80;20999;-52
2022/04/10 01:14:06;;;;;;;7.15;5.83;;;;;;;4.40;80.00;93689.84;1774173;80;21268;-51
2022/04/10 01:16:36;;;;;;;6.22;5.15;;;;;;;4.43;80.18;93681.55;1774065;80;21085;-52
2022/04/10 01:19:05;;;;;;;6.45;5.20;;;;;;;4.49;79.77;93693.45;1774207;80;20979;-49
2022/04/10 01:21:40;;;;;;;8.03;6.53;;;;;;;4.48;79.61;93697.37;1774445;80;20967;-52
2022/04/10 01:24:09;;;;;;;9.23;7.12;;;;;;;4.42;79.36;93693.64;1774986;80;21021;-50
2022/04/10 01:26:37;;;;;;;9.68;6.20;;;;;;;4.30;79.26;93705.29;1774536;80;21912;-52
2022/04/10 01:29:13;;;;;;;6.97;6.25;;;;;;;4.27;79.67;93689.80;1774350;80;20945;-50
2022/04/10 01:31:43;;;;;;;6.75;6.15;;;;;;;4.29;79.80;93694.23;1774262;80;21050;-50
2022/04/10 01:34:15;;;;;;;6.50;5.20;;;;;;;4.31;79.70;93704.09;1774433;80;21097;-50
2022/04/10 01:36:44;;;;;;;5.28;4.80;;;;;;;4.25;79.54;93701.72;1744477;80;21616;-50
2022/04/10 01:39:15;;;;;;;8.05;7.15;;;;;;;4.21;80.08;93702.42;1773772;80;20987;-51
2022/04/10 01:41:42;;;;;;;5.95;5.45;;;;;;;4.21;80.08;93694.25;1774416;80;20959;-52
2022/04/10 01:44:11;;;;;;;5.55;5.10;;;;;;;4.20;79.91;93695.45;1740211;81;21007;-51
2022/04/10 01:46:38;;;;;;;5.22;4.75;;;;;;;4.22;79.84;93703.20;1771206;81;21082;-51
2022/04/10 01:49:07;;;;;;;5.28;4.83;;;;;;;4.19;79.80;93706.17;1771155;81;21098;-51
2022/04/10 01:51:35;;;;;;;5.55;5.15;;;;;;;4.16;80.04;93707.05;1770692;81;22047;-51
2022/04/10 01:54:04;;;;;;;6.78;6.17;;;;;;;4.13;80.04;93713.36;1771220;81;21003;-52
2022/04/10 01:56:31;;;;;;;6.95;5.87;;;;;;;4.17;80.37;93711.29;1770953;81;21063;-51
2022/04/10 01:59:00;;;;;;;7.97;7.22;;;;;;;4.18;80.09;93707.95;1770881;81;21026;-51
2022/04/10 02:01:27;;;;;;;6.97;6.33;;;;;;;4.17;80.13;93712.66;1771180;81;20962;-51
2022/04/10 02:03:56;;;;;;;7.70;6.55;;;;;;;4.16;80.13;93713.84;1770986;81;21059;-53
2022/04/10 02:06:24;;;;;;;6.25;5.75;;;;;;;4.20;80.19;93706.95;1771223;81;21467;-52
2022/04/10 02:08:52;;;;;;;6.37;5.80;;;;;;;4.21;80.02;93701.06;1771277;81;21450;-52
2022/04/10 02:11:21;;;;;;;5.97;5.47;;;;;;;4.24;80.23;93698.09;1771312;79;21460;-51
2022/04/10 02:13:50;;;;;;;6.10;5.50;;;;;;;4.26;79.84;93706.58;1771420;81;21046;-51
2022/04/10 02:16:19;;;;;;;6.12;5.62;;;;;;;4.19;79.55;93706.17;1770580;81;21143;-51
2022/04/10 02:18:48;;;;;;;11.88;8.33;;;;;;;4.10;79.73;93702.56;1770836;81;21061;-51
2022/04/10 02:21:16;;;;;;;11.75;9.05;;;;;;;4.02;79.64;93704.70;1771239;81;20963;-51
2022/04/10 02:23:44;;;;;;;25.60;16.75;;;;;;;4.00;79.71;93707.09;1771215;81;20979;-51
2022/04/10 02:26:12;;;;;;;14.98;11.08;;;;;;;4.00;79.82;93707.09;1771284;81;21578;-51
2022/04/10 02:28:40;;;;;;;8.40;7.15;;;;;;;4.02;79.79;93712.87;1770995;81;20975;-49
2022/04/10 02:31:08;;;;;;;8.83;7.87;;;;;;;3.99;80.02;93709.66;1771197;81;21483;-51
2022/04/10 02:33:37;;;;;;;8.60;7.70;;;;;;;3.97;80.29;93702.52;1771469;81;20999;-50
2022/04/10 02:36:06;;;;;;;10.82;8.88;;;;;;;3.91;80.19;93701.50;1770999;81;20967;-51
2022/04/10 02:38:34;;;;;;;12.25;9.05;;;;;;;3.89;80.40;93703.89;1770520;81;21003;-50
2022/04/10 02:41:00;;;;;;;14.65;11.25;;;;;;;3.92;80.37;93707.14;1770865;81;21133;-50
2022/04/10 02:43:27;;;;;;;23.30;15.32;;;;;;;3.92;80.26;93710.44;1771125;81;21050;-52
2022/04/10 02:45:56;;;;;;;24.15;16.27;;;;;;;3.89;80.14;93705.25;1771377;81;20955;-49
2022/04/10 02:48:23;;;;;;;29.82;18.57;;;;;;;3.87;80.19;93712.33;1771072;81;20980;-50
2022/04/10 02:50:51;;;;;;;15.78;11.20;;;;;;;3.78;80.14;93711.59;1771107;81;21011;-53
2022/04/10 02:53:18;;;;;;;14.73;10.88;;;;;;;3.67;80.39;93715.78;1770724;81;21143;-51
2022/04/10 02:55:46;;;;;;;9.93;8.33;;;;;;;3.62;80.66;93717.05;1771147;81;20939;-50
2022/04/10 02:58:14;;;;;;;8.38;7.58;;;;;;;3.62;80.92;93707.54;1770722;81;20991;-53
2022/04/10 03:00:42;;;;;;;10.82;9.83;;;;;;;3.64;81.07;93717.39;1771044;81;21043;-52
2022/04/10 03:03:09;;;;;;;9.38;8.45;;;;;;;3.67;81.31;93722.58;1771116;81;21018;-51
2022/04/10 03:05:38;;;;;;;14.07;11.35;;;;;;;3.68;81.22;93708.53;1739529;81;21179;-52
2022/04/10 03:08:06;;;;;;;15.15;13.20;;;;;;;3.69;81.40;93716.86;1771095;79;21004;-51
2022/04/10 03:10:35;;;;;;;15.65;12.68;;;;;;;3.68;81.40;93720.03;1741303;81;21019;-52
2022/04/10 03:13:02;;;;;;;16.62;12.28;;;;;;;3.64;81.35;93721.47;1768767;81;21014;-50
2022/04/10 03:15:29;;;;;;;19.02;14.10;;;;;;;3.58;81.31;93719.69;1767432;81;21064;-53
2022/04/10 03:17:57;;;;;;;17.52;13.98;;;;;;;3.58;81.61;93722.41;1760507;81;21292;-51
2022/04/10 03:20:25;;;;;;;19.10;12.30;;;;;;;3.61;81.86;93718.25;1755986;81;21113;-51
2022/04/10 03:22:52;;;;;;;16.27;12.10;;;;;;;3.62;81.79;93722.49;1756270;81;21082;-51
2022/04/10 03:25:20;;;;;;;22.15;15.90;;;;;;;3.62;81.75;93727.16;1756237;81;21003;-51
2022/04/10 03:27:48;;;;;;;21.42;14.93;;;;;;;3.55;81.75;93728.09;1755947;81;21105;-51
2022/04/10 03:30:15;;;;;;;23.62;15.70;;;;;;;3.52;82.02;93724.12;1755980;81;21158;-53
2022/04/10 03:32:43;;;;;;;23.45;15.05;;;;;;;3.52;82.03;93724.12;1755923;81;20968;-52
2022/04/10 03:35:11;;;;;;;30.52;17.98;;;;;;;3.53;82.01;93726.40;1756334;81;21030;-52
2022/04/10 03:37:40;;;;;;;32.83;20.12;;;;;;;3.52;82.10;93723.52;1755712;81;21015;-52
2022/04/10 03:40:09;;;;;;;28.60;17.92;;;;;;;3.54;82.39;93729.28;1756046;81;21605;-50
2022/04/10 03:42:40;;;;;;;24.80;16.77;;;;;;;3.52;82.23;93731.67;1758467;81;21237;-52
2022/04/10 03:45:09;;;;;;;27.22;19.27;;;;;;;3.49;82.42;93732.53;1737160;82;21615;-52
2022/04/10 03:47:38;;;;;;;22.55;16.80;;;;;;;3.48;82.60;93732.36;1767778;81;21116;-52
2022/04/10 03:50:06;;;;;;;20.50;14.98;;;;;;;3.51;82.76;93726.06;1767305;81;20956;-52
2022/04/10 03:52:35;;;;;;;21.15;16.20;;;;;;;3.59;83.12;93732.88;1767179;81;20976;-51
2022/04/10 03:55:04;;;;;;;21.90;15.08;;;;;;;3.67;83.08;93734.20;1767455;81;22062;-51
2022/04/10 03:57:33;;;;;;;15.78;12.90;;;;;;;3.75;82.92;93741.59;1767030;81;20968;-53
2022/04/10 04:00:04;;;;;;;19.82;17.62;;;;;;;3.74;82.71;93736.76;1767436;81;22001;-51
2022/04/10 04:02:34;;;;;;;20.10;13.25;;;;;;;3.75;82.72;93747.80;1766474;81;21451;-52
2022/04/10 04:05:01;;;;;;;19.35;13.50;;;;;;;3.76;82.49;93747.97;1767233;81;21023;-50
2022/04/10 04:07:28;;;;;;;19.07;13.00;;;;;;;3.76;82.09;93750.69;1767602;81;21138;-52
2022/04/10 04:09:57;;;;;;;23.62;13.90;;;;;;;3.77;82.01;93754.94;1767609;81;20957;-52
2022/04/10 04:12:24;;;;;;;21.35;14.58;;;;;;;3.84;82.45;93754.74;1767243;79;21000;-51
2022/04/10 04:14:51;;;;;;;28.25;17.40;;;;;;;3.87;81.84;93759.94;1767470;81;21024;-53
2022/04/10 04:17:18;;;;;;;24.18;17.50;;;;;;;3.81;81.58;93759.69;1767166;81;20992;-52
2022/04/10 04:19:49;;;;;;;26.82;18.00;;;;;;;3.76;81.60;93764.29;1767022;81;21134;-52
2022/04/10 04:22:17;;;;;;;28.38;16.82;;;;;;;3.72;81.46;93769.03;1767644;81;20968;-52
2022/04/10 04:24:44;;;;;;;38.70;31.10;;;;;;;3.69;81.66;93769.14;1767552;81;20941;-51
2022/04/10 04:27:11;;;;;;;28.60;23.50;;;;;;;3.70;81.87;93771.42;1767705;81;20984;-50
2022/04/10 04:29:38;;;;;;;27.65;19.77;;;;;;;3.70;81.71;93774.14;1767189;81;21042;-51
2022/04/10 04:32:09;;;;;;;23.52;17.92;;;;;;;3.59;81.56;93782.39;1767610;81;21584;-52
2022/04/10 04:34:36;;;;;;;27.37;21.12;;;;;;;3.49;81.85;93783.44;1767619;81;21495;-53
2022/04/10 04:37:05;;;;;;;103.17;62.25;;;;;;;3.45;82.28;93791.50;1767458;81;20953;-52
2022/04/10 04:39:32;;;;;;;53.33;37.40;;;;;;;3.48;82.57;93797.44;1767462;81;21084;-51
2022/04/10 04:42:00;;;;;;;40.23;28.02;;;;;;;3.52;82.46;93790.73;1767534;81;20984;-51
2022/04/10 04:44:30;;;;;;;47.58;31.23;;;;;;;3.48;82.38;93794.14;1765408;80;21079;-51
2022/04/10 04:46:57;;;;;;;50.50;30.43;;;;;;;3.45;82.58;93794.22;1764851;81;21468;-53
2022/04/10 04:49:25;;;;;;;52.43;29.92;;;;;;;3.45;82.91;93798.29;1764746;81;20984;-51
2022/04/10 04:51:53;;;;;;;49.25;29.40;;;;;;;3.48;83.01;93797.61;1764568;81;20965;-51
2022/04/10 04:54:21;;;;;;;44.95;26.10;;;;;;;3.53;82.95;93800.41;1764375;81;20948;-52
2022/04/10 04:56:49;;;;;;;35.55;24.30;;;;;;;3.59;82.88;93810.36;1764686;81;21177;-52
2022/04/10 04:59:17;;;;;;;30.48;22.65;;;;;;;3.64;82.71;93807.13;1764277;80;21472;-53
2022/04/10 05:01:44;;;;;;;31.48;21.73;;;;;;;3.71;82.70;93809.66;1764733;81;21004;-52
2022/04/10 05:04:12;;;;;;;34.25;23.45;;;;;;;3.78;82.62;93813.58;1764863;80;20952;-52
2022/04/10 05:06:40;;;;;;;26.60;18.23;;;;;;;3.83;82.19;93812.31;1764477;81;21528;-53
2022/04/10 05:09:08;;;;;;;33.28;21.75;;;;;;;3.80;81.94;93814.50;1764648;81;21213;-52
2022/04/10 05:11:35;;;;;;;43.50;29.95;;;;;;;3.78;81.94;93814.16;1764163;81;21477;-53
2022/04/10 05:14:04;;;;;;;32.80;22.98;;;;;;;3.82;82.30;93820.27;1748254;81;21488;-52
2022/04/10 05:16:32;;;;;;;33.67;22.10;;;;;;;3.93;82.35;93822.92;1748482;80;21005;-50
2022/04/10 05:18:59;;;;;;;31.62;19.23;;;;;;;4.03;82.41;93808.88;1747391;81;20997;-51
2022/04/10 05:21:26;;;;;;;23.20;16.65;;;;;;;4.16;81.97;93817.27;1748196;82;21136;-52
2022/04/10 05:23:54;;;;;;;30.85;23.00;;;;;;;4.16;81.14;93815.91;1748429;82;20989;-54
2022/04/10 05:26:23;;;;;;;29.35;19.60;;;;;;;4.10;80.97;93823.06;1748587;81;20874;-51
2022/04/10 05:28:52;;;;;;;27.67;17.98;;;;;;;4.09;80.98;93824.23;1771189;80;21042;-51
2022/04/10 05:31:19;;;;;;;18.48;13.08;;;;;;;4.14;81.08;93830.54;1765149;81;21002;-51
2022/04/10 05:33:47;;;;;;;21.20;13.15;;;;;;;4.23;80.67;93829.92;1765402;81;21202;-52
2022/04/10 05:36:17;;;;;;;15.55;12.37;;;;;;;4.27;80.02;93832.70;1765487;81;20949;-52
2022/04/10 05:38:46;;;;;;;14.60;11.60;;;;;;;4.26;79.91;93831.17;1764920;81;20994;-51
2022/04/10 05:41:14;;;;;;;32.17;21.70;;;;;;;4.27;79.78;93834.06;1765330;81;20977;-52
2022/04/10 05:43:42;;;;;;;43.15;28.00;;;;;;;4.26;79.77;93830.42;1768355;81;21458;-53
2022/04/10 05:46:09;;;;;;;17.27;14.20;;;;;;;4.17;79.73;93828.31;1774153;81;21235;-53
2022/04/10 05:48:36;;;;;;;18.15;14.30;;;;;;;4.14;79.90;93845.50;1774166;81;20965;-52
2022/04/10 05:51:06;;;;;;;26.25;16.30;;;;;;;4.17;80.17;93840.56;1774200;81;21051;-53
2022/04/10 05:53:33;;;;;;;29.57;17.92;;;;;;;4.20;79.71;93835.62;1722464;80;21402;-51
2022/04/10 05:56:01;;;;;;;33.70;21.60;;;;;;;4.19;79.53;93846.92;1773801;81;21004;-52
2022/04/10 05:58:28;;;;;;;20.27;16.02;;;;;;;4.13;79.40;93841.25;1773612;80;21130;-52
2022/04/10 06:00:56;;;;;;;23.15;16.05;;;;;;;4.05;79.74;93843.97;1774011;81;21033;-52
2022/04/10 06:03:23;;;;;;;29.70;21.80;;;;;;;4.01;79.81;93846.02;1774346;81;21425;-54
2022/04/10 06:05:53;;;;;;;26.70;21.12;;;;;;;3.97;80.17;93849.44;1774345;81;20962;-55
2022/04/10 06:08:22;;;;;;;25.95;17.65;;;;;;;4.03;80.45;93852.41;1773405;81;21072;-55
2022/04/10 06:10:50;;;;;;;23.02;17.95;;;;;;;4.10;80.32;93854.94;1767394;81;20997;-54
2022/04/10 06:13:20;;;;;;;22.27;17.92;;;;;;;4.04;80.38;93856.05;1774126;81;22275;-54
2022/04/10 06:15:50;;;;;;;27.05;21.07;;;;;;;4.02;80.74;93857.69;1773424;81;21073;-53
2022/04/10 06:18:19;;;;;;;29.85;20.92;;;;;;;4.07;81.03;93856.55;1767318;79;21397;-54
2022/04/10 06:20:48;;;;;;;40.90;32.33;;;;;;;4.12;81.01;93860.14;1732264;81;21086;-53
2022/04/10 06:23:15;;;;;;;25.95;20.12;;;;;;;4.14;80.74;93864.55;1785159;80;21439;-54
2022/04/10 06:25:45;;;;;;;19.32;15.88;;;;;;;4.17;80.36;93863.70;1743432;80;20976;-53
2022/04/10 06:28:12;;;;;;;17.55;13.72;;;;;;;4.17;80.03;93872.45;1755053;81;21066;-55
2022/04/10 06:30:43;;;;;;;19.45;14.87;;;;;;;4.13;79.86;93870.41;1728470;81;21487;-54
2022/04/10 06:33:14;;;;;;;23.42;15.43;;;;;;;4.11;79.71;93876.30;1749786;79;21052;-54
2022/04/10 06:35:41;;;;;;;20.32;14.78;;;;;;;4.13;79.91;93873.91;1687702;83;21127;-53
2022/04/10 06:38:09;;;;;;;17.82;13.93;;;;;;;4.18;79.66;93883.50;1711948;82;21025;-54
2022/04/10 06:40:36;;;;;;;18.30;13.65;;;;;;;4.26;79.39;93878.06;1743593;82;21020;-52
2022/04/10 06:43:08;;;;;;;20.85;15.10;;;;;;;4.31;79.03;93869.37;1778946;79;21123;-53
2022/04/10 06:45:55;;;;;;;27.82;17.77;;;;;;;4.39;79.11;93878.28;1794802;79;20993;-55
2022/04/10 06:48:29;;;;;;;18.95;14.73;;;;;;;4.49;79.38;93886.78;1772927;81;21288;-53
2022/04/10 06:50:58;;;;;;;22.93;17.05;;;;;;;4.56;79.16;93885.22;1773757;80;21500;-56
2022/04/10 06:53:26;;;;;;;15.15;11.78;;;;;;;4.60;79.09;93885.89;1769450;80;20963;-54
2022/04/10 06:55:54;;;;;;;12.25;10.80;;;;;;;4.67;78.70;93887.08;1749133;81;21013;-53
2022/04/10 06:58:22;;;;;;;12.90;10.72;;;;;;;4.73;77.25;93885.34;1772918;80;21032;-53
2022/04/10 07:00:50;;;;;;;15.58;12.88;;;;;;;4.74;75.87;93885.52;1785682;80;21160;-55
2022/04/10 07:03:17;;;;;;;16.37;12.30;;;;;;;4.71;75.08;93887.74;1772285;80;21610;-55
2022/04/10 07:05:45;;;;;;;19.62;12.33;;;;;;;4.68;75.02;93887.25;1768877;80;21008;-54
2022/04/10 07:08:15;;;;;;;15.60;11.73;;;;;;;4.67;75.13;93887.66;1769505;80;20942;-53
2022/04/10 07:10:43;;;;;;;13.00;11.12;;;;;;;4.67;74.73;93882.22;1767496;79;20982;-53
2022/04/10 07:13:19;;;;;;;16.12;12.43;;;;;;;4.64;74.29;93886.55;1756811;81;21481;-55
2022/04/10 07:15:53;;;;;;;38.40;34.20;;;;;;;4.64;74.41;93892.00;1771141;81;22257;-56
2022/04/10 07:18:19;;;;;;;19.02;17.02;;;;;;;4.58;74.65;93897.81;1773389;79;21030;-56
2022/04/10 07:20:47;;;;;;;18.87;15.58;;;;;;;4.57;74.77;93895.54;1766260;79;21540;-53
2022/04/10 07:26:03;;;;;;;36.13;21.85;;;;;;;4.23;74.95;93909.61;1756362;81;21330;-53
2022/04/10 07:28:31;;;;;;;23.60;18.62;;;;;;;4.09;75.86;93916.01;1757687;81;21087;-55
2022/04/10 07:31:00;;;;;;;29.90;21.02;;;;;;;4.04;76.39;93914.55;1747076;81;20996;-54
2022/04/10 07:33:29;;;;;;;21.68;18.55;;;;;;;4.02;76.66;93914.83;1749457;79;21513;-54
2022/04/10 07:35:59;;;;;;;20.15;14.20;;;;;;;3.93;76.90;93920.86;1770279;81;21036;-54
2022/04/10 07:38:30;;;;;;;17.32;13.70;;;;;;;3.93;77.05;93919.50;1764745;81;21148;-54
2022/04/10 07:40:58;;;;;;;20.30;15.43;;;;;;;3.94;77.16;93922.39;1742442;82;21191;-56
2022/04/10 07:43:28;;;;;;;19.57;15.40;;;;;;;3.91;77.56;93925.19;1745962;79;21493;-54
2022/04/10 07:48:43;;;;;;;15.90;11.45;;;;;;;3.92;78.43;93926.13;1796837;79;21520;-55
2022/04/10 07:51:12;;;;;;;17.92;16.02;;;;;;;3.99;78.25;93934.70;1756224;80;21158;-54
2022/04/10 07:53:57;;;;;;;13.40;12.00;;;;;;;3.98;78.04;93938.03;1762590;81;20992;-56
2022/04/10 07:56:25;;;;;;;19.17;14.00;;;;;;;4.08;77.83;93931.55;1752083;79;20932;-54
2022/04/10 07:58:52;;;;;;;28.83;25.75;;;;;;;4.09;77.70;93941.25;1735499;81;20969;-55
2022/04/10 08:01:23;;;;;;;19.60;16.23;;;;;;;4.15;78.21;93939.56;1743979;81;21005;-53
2022/04/10 08:03:52;;;;;;;19.37;15.05;;;;;;;4.26;78.00;93938.69;1765500;81;21045;-54
2022/04/10 08:06:38;;;;;;;18.70;15.00;;;;;;;4.28;77.45;93947.20;1741344;81;21582;-54
2022/04/10 08:09:07;;;;;;;17.73;15.15;;;;;;;4.26;77.29;93948.22;1749695;79;21009;-52
2022/04/10 08:11:34;;;;;;;16.73;14.68;;;;;;;4.19;77.33;93942.96;1740691;81;20982;-54
2022/04/10 08:14:01;;;;;;;13.38;11.88;;;;;;;4.19;77.52;93946.27;1764589;81;21064;-54
2022/04/10 08:16:27;;;;;;;19.02;14.43;;;;;;;4.20;77.77;93955.38;1764736;81;21101;-53
2022/04/10 08:18:56;;;;;;;19.32;17.27;;;;;;;4.17;77.86;93952.73;1765019;80;20962;-53
2022/04/10 08:21:24;;;;;;;17.42;14.40;;;;;;;4.14;78.35;93957.09;1742246;79;21032;-57
2022/04/10 08:23:52;;;;;;;14.38;12.75;;;;;;;4.17;78.44;93958.95;1742192;81;21039;-54
2022/04/10 08:26:18;;;;;;;18.35;14.87;;;;;;;4.20;78.21;93960.82;1765824;81;21077;-53
2022/04/10 08:28:47;;;;;;;15.80;13.25;;;;;;;4.24;78.06;93965.58;1765687;81;21038;-55
2022/04/10 08:31:13;;;;;;;18.40;14.05;;;;;;;4.26;77.90;93959.72;1765739;81;20955;-55
2022/04/10 08:33:43;;;;;;;23.05;17.62;;;;;;;4.25;78.04;93963.02;1747856;81;21042;-54
2022/04/10 08:36:13;;;;;;;15.37;12.93;;;;;;;4.21;78.19;93960.98;1750629;82;21068;-54
2022/04/10 08:38:40;;;;;;;13.22;11.10;;;;;;;4.16;78.44;93964.23;1750474;80;20970;-55
2022/04/10 08:41:07;;;;;;;16.30;12.65;;;;;;;4.18;78.39;93965.92;1750468;82;21203;-55
2022/04/10 08:43:36;;;;;;;17.35;14.07;;;;;;;4.15;78.39;93966.00;1750335;82;20954;-55
2022/04/10 08:46:03;;;;;;;16.65;13.55;;;;;;;4.13;78.22;93967.80;1754959;80;20989;-55
2022/04/10 08:48:33;;;;;;;14.83;11.83;;;;;;;4.14;78.29;93967.97;1738261;82;21110;-56
2022/04/10 08:51:02;;;;;;;16.17;12.85;;;;;;;4.20;78.30;93974.43;1746328;81;21551;-53
2022/04/10 08:53:30;;;;;;;17.67;13.93;;;;;;;4.22;78.00;93973.41;1752382;81;21140;-53
2022/04/10 08:55:58;;;;;;;16.37;14.43;;;;;;;4.20;78.01;93981.84;1715071;79;21572;-53
2022/04/10 08:58:27;;;;;;;25.65;19.35;;;;;;;4.18;77.81;93987.70;1778066;79;20967;-56
2022/04/10 09:00:57;;;;;;;21.90;16.05;;;;;;;4.17;77.79;93985.39;1740224;82;20971;-55
2022/04/10 09:03:28;;;;;;;19.92;16.48;;;;;;;4.15;77.62;93988.55;1740348;82;21418;-56
2022/04/10 09:06:09;;;;;;;17.32;15.25;;;;;;;4.11;77.81;93987.87;1740434;82;21251;-56
2022/04/10 09:08:39;;;;;;;19.67;15.40;;;;;;;4.08;78.24;93984.62;1749191;79;20987;-55
2022/04/10 09:11:09;;;;;;;23.75;17.02;;;;;;;4.07;78.42;93989.89;1759733;81;20977;-55
2022/04/10 09:13:49;;;;;;;24.47;17.82;;;;;;;4.05;78.46;93990.16;1740427;82;21619;-55
2022/04/10 09:16:23;;;;;;;26.70;19.25;;;;;;;4.01;78.81;93988.88;1740422;82;21060;-56
2022/04/10 09:19:01;;;;;;;24.72;18.52;;;;;;;4.08;79.19;93987.34;1766694;79;21082;-55
2022/04/10 09:21:33;;;;;;;22.93;18.00;;;;;;;4.13;79.20;93988.22;1791699;79;21028;-55
2022/04/10 09:24:07;;;;;;;18.20;14.70;;;;;;;4.19;79.41;93987.87;1746506;81;21091;-54
2022/04/10 09:26:55;;;;;;;15.48;11.80;;;;;;;4.26;79.59;93993.14;1749121;79;22431;-54
2022/04/10 09:29:23;;;;;;;17.12;14.03;;;;;;;4.31;78.88;93992.65;1743984;81;21013;-54
2022/04/10 09:31:54;;;;;;;14.73;13.22;;;;;;;4.27;78.80;93985.14;1753634;81;21135;-54
2022/04/10 09:34:25;;;;;;;16.00;14.30;;;;;;;4.30;78.99;93989.76;1765106;79;21017;-55
2022/04/10 09:37:01;;;;;;;22.62;16.85;;;;;;;4.32;78.61;93990.09;1753592;81;20966;-56
2022/04/10 09:39:35;;;;;;;22.60;16.70;;;;;;;4.37;78.36;94003.19;1770912;81;21586;-54
2022/04/10 09:42:08;;;;;;;18.77;16.15;;;;;;;4.45;78.37;93998.34;1744882;81;21017;-56
2022/04/10 09:44:38;;;;;;;20.25;16.32;;;;;;;4.43;78.32;94000.73;1749927;79;21556;-55
2022/04/10 09:47:08;;;;;;;15.75;11.75;;;;;;;4.39;78.24;94003.53;1731319;81;20960;-55
2022/04/10 09:49:40;;;;;;;15.03;12.63;;;;;;;4.40;78.06;94002.33;1746162;81;21506;-57
2022/04/10 09:52:14;;;;;;;19.05;13.68;;;;;;;4.47;77.64;94004.91;1755602;81;21077;-55
2022/04/10 09:54:46;;;;;;;;;;;;;;;4.52;77.41;94015.28;1750904;81;21017;-55
2022/04/10 09:57:17;;;;;;;12.35;10.28;;;;;;;4.52;76.95;94005.74;1754703;80;21200;-55
2022/04/10 09:59:49;;;;;;;12.10;10.80;;;;;;;4.53;76.91;93999.69;1770264;80;21101;-55
2022/04/10 10:02:23;;;;;;;12.50;10.03;;;;;;;4.56;76.81;94000.19;1761132;80;20942;-56
2022/04/10 10:04:55;;;;;;;10.70;9.58;;;;;;;4.58;76.89;93996.47;1778819;80;21091;-53
2022/04/10 10:07:23;;;;;;;13.68;11.38;;;;;;;4.65;76.79;94005.81;1767940;80;21004;-55
2022/04/10 10:09:53;;;;;;;21.90;19.70;;;;;;;4.70;76.66;94003.34;1768557;80;20902;-55
2022/04/10 10:12:22;;;;;;;17.02;13.45;;;;;;;4.72;76.88;94000.95;1789080;80;21485;-55
2022/04/10 10:14:51;;;;;;;14.35;12.58;;;;;;;4.75;76.37;94011.00;1766058;81;21465;-55
2022/04/10 10:17:19;;;;;;;14.33;12.23;;;;;;;4.70;76.52;94019.69;1774789;79;21018;-53
2022/04/10 10:19:49;;;;;;;16.20;13.65;;;;;;;4.60;76.57;94013.15;1745545;80;21068;-53
2022/04/10 10:22:18;;;;;;;14.00;12.70;;;;;;;4.54;77.06;94013.47;1757190;79;21211;-52
2022/04/10 10:25:00;;;;;;;13.50;12.15;;;;;;;4.58;76.96;94004.03;1718466;82;21436;-59
2022/04/10 10:27:55;;;;;;;22.07;18.77;;;;;;;4.59;76.77;94005.56;1739008;80;21079;-52
2022/04/10 10:30:49;;;;;;;22.65;18.87;;;;;;;4.62;76.68;93997.14;1757648;80;21125;-54
2022/04/10 10:33:24;;;;;;;17.17;14.03;;;;;;;4.68;76.14;94003.59;1762516;80;21409;-52
2022/04/10 10:35:54;;;;;;;19.87;14.63;;;;;;;4.70;75.65;94003.34;1759432;81;21690;-51
2022/04/10 10:38:31;;;;;;;20.48;17.70;;;;;;;4.65;75.91;94007.18;1759890;81;21482;-53
2022/04/10 10:41:18;;;;;;;26.33;20.52;;;;;;;4.64;75.92;94006.40;1760176;81;20962;-54
2022/04/10 10:43:48;;;;;;;35.98;29.00;;;;;;;4.73;76.21;94014.75;1759979;81;20954;-54
2022/04/10 10:46:32;;;;;;;20.97;16.17;;;;;;;4.84;75.68;94016.63;1776305;79;21019;-53
2022/04/10 10:49:16;;;;;;;16.20;13.80;;;;;;;4.88;75.05;94006.97;1776108;79;21213;-54
2022/04/10 10:51:48;;;;;;;15.23;12.20;;;;;;;4.79;75.18;94007.58;1748821;81;20943;-53
2022/04/10 10:54:24;;;;;;;13.85;11.88;;;;;;;4.75;75.14;94009.63;1774157;81;20970;-53
2022/04/10 10:56:52;;;;;;;12.07;10.38;;;;;;;4.68;75.12;94007.09;1770180;79;20995;-51
2022/04/10 10:59:43;;;;;;;13.70;12.30;;;;;;;4.65;75.64;94007.18;1740265;82;21605;-52
2022/04/10 11:02:11;;;;;;;13.80;12.40;;;;;;;4.57;75.60;94003.86;1740134;82;21164;-51
2022/04/10 11:04:42;;;;;;;18.77;13.90;;;;;;;4.55;75.91;94008.97;1769132;81;20996;-54
2022/04/10 11:07:21;;;;;;;17.42;12.95;;;;;;;4.60;76.56;94015.26;1774262;81;21138;-52
2022/04/10 11:10:11;;;;;;;11.57;10.03;;;;;;;4.75;76.89;94013.72;1788916;79;20998;-52
2022/04/10 11:13:08;;;;;;;11.15;10.00;;;;;;;4.85;76.05;94005.89;1805760;79;21025;-51
2022/04/10 11:15:51;;;;;;;12.07;10.85;;;;;;;4.91;76.11;94010.20;1754305;81;21166;-52
2022/04/10 11:18:28;;;;;;;14.80;12.15;;;;;;;4.99;75.91;94005.50;1774697;79;21017;-53
2022/04/10 11:21:14;;;;;;;15.83;12.15;;;;;;;5.08;75.53;93998.84;1763382;79;21013;-52
2022/04/10 11:23:45;;;;;;;11.20;9.78;;;;;;;5.06;74.90;94008.06;1765765;81;21007;-52
2022/04/10 11:26:17;;;;;;;14.40;11.33;;;;;;;4.98;75.27;94001.24;1766232;81;21023;-51
2022/04/10 11:29:05;;;;;;;14.23;10.60;;;;;;;5.02;75.65;94003.30;1766298;81;21170;-53
2022/04/10 11:31:44;;;;;;;13.55;11.25;;;;;;;5.13;75.65;94005.74;1766088;81;20991;-53
2022/04/10 11:34:24;;;;;;;12.98;10.98;;;;;;;5.23;75.19;93996.50;1787258;79;21548;-52
2022/04/10 11:36:53;;;;;;;12.03;9.63;;;;;;;5.38;73.97;93997.06;1800024;79;21010;-51
2022/04/10 11:39:35;;;;;;;11.55;10.32;;;;;;;5.49;73.81;94001.60;1771304;81;21033;-53
2022/04/10 11:42:04;;;;;;;9.50;8.63;;;;;;;5.61;73.41;93997.53;1802639;79;21537;-53
2022/04/10 11:44:32;;;;;;;11.10;9.60;;;;;;;5.77;72.37;93991.25;1802400;79;21037;-53
2022/04/10 11:47:01;;;;;;;13.35;11.05;;;;;;;5.90;72.52;93998.28;1750971;80;21511;-52
2022/04/10 11:49:28;;;;;;;11.40;10.28;;;;;;;6.09;71.70;93993.22;1771036;81;20979;-51